Vedic City, Iowa
Current Conditions -  °F | °C
As of 11:35 AM on Thursday 30 Oct 2014 (Local Time) from KFFL Reporting Station
Overcast Overcast  
Wind Chill: 50°   Ceiling: 9000
Heat Index: 50°   Visibility: NA
Dew Point: 39°   Wind: 9mph
Humidity: 66%   Direction: 130°SE
Pressure: 30.05"   Gusts: 15mph
Location:  40.9879°N, 91.8924°W
Report Text: KFFL 301635Z AUTO 13008G13KT OVC090 10/04 A3005 RMK AO2
Loading
Personal Weather Stations






























Interactive Weather Map
Tropical Storm Tracking
New forecast layout! Learn more

10-Day Weather Forecast

Advertisements
Track Severe Weather on mobile